createdAt,value
2022-08-22T00:02:47.662Z,60.04
2022-08-22T00:02:58.171Z,59.81
2022-08-22T06:14:24.787Z,59.98
2022-08-22T06:15:24.244Z,61.08
2022-08-22T06:16:24.239Z,60.95
2022-08-22T06:17:24.303Z,59.61
2022-08-22T06:18:24.250Z,59.25
2022-08-22T06:19:24.181Z,60.79
2022-08-22T06:20:24.167Z,60.71
2022-08-22T06:21:24.207Z,58.85
2022-08-22T06:22:24.358Z,58.33
2022-08-22T06:23:24.240Z,60.14
2022-08-22T06:24:24.207Z,59.93
2022-08-22T06:25:24.308Z,59.32
2022-08-22T06:26:24.167Z,58.06
2022-08-22T06:27:24.334Z,59.75
2022-08-22T06:28:24.137Z,60.22
2022-08-22T06:41:10.913Z,58.78
2022-08-22T06:42:14.512Z,60.19
2022-08-22T06:43:10.117Z,58.73
2022-08-22T06:44:10.054Z,60.18
2022-08-22T06:45:10.042Z,59.02
2022-08-22T06:46:10.061Z,59.41
2022-08-22T06:47:10.023Z,56.79
2022-08-22T06:48:09.996Z,58.80
2022-08-22T06:49:10.003Z,59.36
2022-08-22T06:50:13.929Z,60.95
2022-08-22T06:51:10.010Z,61.67
2022-08-22T06:52:09.957Z,59.72
2022-08-22T06:53:09.945Z,59.35
2022-08-22T06:54:09.982Z,59.76
2022-08-22T06:55:09.932Z,59.32
2022-08-22T06:56:09.894Z,62.22
2022-08-22T06:57:09.893Z,61.85
2022-08-22T06:58:09.873Z,61.59
2022-08-22T06:59:09.895Z,61.51
2022-08-22T07:00:09.912Z,61.29
2022-08-22T07:01:12.388Z,60.59
2022-08-22T07:02:09.916Z,61.19
2022-08-22T07:03:09.863Z,61.66
2022-08-22T07:04:09.862Z,61.14
2022-08-22T07:05:09.810Z,61.90
2022-08-22T07:06:09.790Z,60.60
2022-08-22T07:07:09.872Z,60.20
2022-08-22T07:08:10.924Z,62.15
2022-08-22T07:09:10.972Z,61.86
2022-08-22T07:10:10.937Z,60.54
2022-08-22T07:11:10.892Z,60.07
2022-08-22T07:12:10.866Z,61.16
2022-08-22T07:13:10.866Z,59.92
2022-08-22T07:14:10.852Z,59.62
2022-08-22T07:15:10.889Z,58.90
2022-08-22T07:16:11.247Z,60.68
2022-08-22T07:22:24.857Z,60.38
2022-08-22T07:23:01.313Z,59.98
2022-08-22T07:24:01.338Z,60.07
2022-08-22T07:25:01.232Z,59.62
2022-08-22T07:26:01.206Z,60.16
2022-08-22T07:38:23.890Z,59.87
2022-08-22T07:39:23.813Z,61.49
2022-08-22T07:40:23.821Z,59.17
2022-08-22T07:41:23.797Z,60.45
2022-08-22T07:42:26.512Z,58.56
2022-08-22T20:05:27.211Z,53.81
2022-08-22T21:20:44.276Z,56.76
2022-08-22T21:21:51.955Z,53.21
2022-08-22T21:42:18.307Z,57.83
2022-08-22T21:43:17.766Z,56.76
2022-08-22T21:44:17.033Z,55.62
2022-08-22T21:45:17.076Z,55.69
2022-08-22T21:46:17.113Z,57.28
2022-08-22T21:47:17.218Z,55.45
2022-08-22T21:48:17.028Z,56.64
2022-08-22T21:49:17.094Z,56.77
2022-08-22T21:50:17.129Z,57.50
2022-08-22T21:51:16.892Z,58.82
2022-08-22T21:52:16.969Z,57.81
2022-08-22T21:53:16.981Z,56.69
2022-08-22T21:54:19.070Z,58.70
2022-08-22T21:55:16.924Z,56.38
2022-08-22T21:56:18.503Z,54.98
2022-08-22T21:57:18.253Z,53.67
2022-08-22T21:58:35.830Z,56.73
2022-08-22T21:59:18.174Z,56.48
2022-08-22T22:00:19.214Z,57.41
2022-08-22T22:01:18.335Z,55.89
2022-08-22T22:02:18.167Z,56.51
2022-08-22T22:03:19.489Z,57.17
